Terminal Aerodrome Forecast
Issued by NWS

Home | Current Version | Previous Version | Text Only | Print | Product List | Glossary On
Versions: 1 2 3 4 5 6 7 8 9 10 11 12 13 14 15 16 17 18 19 20 21 22 23 24 25 26
000
FTPA31 PHFO 181100
TAFOGG
TAF
PHOG 181120Z 1812/1912 05012KT P6SM SCT050
     FM181900 06018G28KT P6SM SCT050
     FM190900 05012KT P6SM SCT050
      AMD LTD TO WX VIS AND WIND TIL 181600=

USA.gov is the U.S. government's official web portal to all federal, state and local government web resources and services.